sensor_id;sensor_type;location;lat;lon;timestamp;P1;durP1;ratioP1;P2;durP2;ratioP2
60241;SDS011;46103;52.076;113.488;2022-11-15T00:00:34;16.77;;;6.68;;
60241;SDS011;46103;52.076;113.488;2022-11-15T00:04:26;23.20;;;6.78;;
60241;SDS011;46103;52.076;113.488;2022-11-15T00:08:33;13.75;;;6.78;;
60241;SDS011;46103;52.076;113.488;2022-11-15T00:12:09;31.73;;;10.52;;
60241;SDS011;46103;52.076;113.488;2022-11-15T00:15:38;24.95;;;10.40;;
60241;SDS011;46103;52.076;113.488;2022-11-15T00:19:19;21.88;;;8.82;;
60241;SDS011;46103;52.076;113.488;2022-11-15T00:22:45;20.75;;;8.20;;
60241;SDS011;46103;52.076;113.488;2022-11-15T00:26:10;22.25;;;8.48;;
60241;SDS011;46103;52.076;113.488;2022-11-15T00:29:33;19.27;;;8.00;;
60241;SDS011;46103;52.076;113.488;2022-11-15T00:33:03;19.53;;;6.73;;
60241;SDS011;46103;52.076;113.488;2022-11-15T00:36:27;21.58;;;7.43;;
60241;SDS011;46103;52.076;113.488;2022-11-15T00:39:53;15.75;;;6.65;;
60241;SDS011;46103;52.076;113.488;2022-11-15T00:43:18;18.83;;;6.57;;
60241;SDS011;46103;52.076;113.488;2022-11-15T00:46:40;25.38;;;8.35;;
60241;SDS011;46103;52.076;113.488;2022-11-15T00:50:03;17.70;;;6.07;;
60241;SDS011;46103;52.076;113.488;2022-11-15T00:53:25;18.40;;;7.07;;
60241;SDS011;46103;52.076;113.488;2022-11-15T00:56:46;17.20;;;6.88;;
60241;SDS011;46103;52.076;113.488;2022-11-15T01:00:08;22.33;;;7.88;;
60241;SDS011;46103;52.076;113.488;2022-11-15T01:03:32;24.60;;;9.00;;
60241;SDS011;46103;52.076;113.488;2022-11-15T01:06:54;28.90;;;11.57;;
60241;SDS011;46103;52.076;113.488;2022-11-15T01:10:16;36.97;;;13.07;;
60241;SDS011;46103;52.076;113.488;2022-11-15T01:13:39;43.28;;;13.77;;
60241;SDS011;46103;52.076;113.488;2022-11-15T01:17:01;43.03;;;16.10;;
60241;SDS011;46103;52.076;113.488;2022-11-15T01:20:24;36.97;;;14.70;;
60241;SDS011;46103;52.076;113.488;2022-11-15T01:23:46;42.83;;;18.02;;
60241;SDS011;46103;52.076;113.488;2022-11-15T01:27:10;43.53;;;17.08;;
60241;SDS011;46103;52.076;113.488;2022-11-15T01:30:32;56.75;;;19.08;;
60241;SDS011;46103;52.076;113.488;2022-11-15T01:33:55;58.85;;;21.00;;
60241;SDS011;46103;52.076;113.488;2022-11-15T01:37:16;63.03;;;20.45;;
60241;SDS011;46103;52.076;113.488;2022-11-15T01:40:38;40.65;;;13.38;;
60241;SDS011;46103;52.076;113.488;2022-11-15T01:48:01;34.05;;;14.43;;
60241;SDS011;46103;52.076;113.488;2022-11-15T01:51:22;27.88;;;10.35;;
60241;SDS011;46103;52.076;113.488;2022-11-15T01:54:51;18.05;;;5.88;;
60241;SDS011;46103;52.076;113.488;2022-11-15T01:58:17;26.27;;;10.40;;
60241;SDS011;46103;52.076;113.488;2022-11-15T02:01:40;17.25;;;6.43;;
60241;SDS011;46103;52.076;113.488;2022-11-15T02:05:02;25.27;;;9.50;;
60241;SDS011;46103;52.076;113.488;2022-11-15T02:08:25;25.25;;;10.20;;
60241;SDS011;46103;52.076;113.488;2022-11-15T02:11:47;31.80;;;14.68;;
60241;SDS011;46103;52.076;113.488;2022-11-15T02:15:12;57.30;;;18.88;;
60241;SDS011;46103;52.076;113.488;2022-11-15T02:18:35;48.30;;;20.15;;
60241;SDS011;46103;52.076;113.488;2022-11-15T02:34:17;26.20;;;10.63;;
60241;SDS011;46103;52.076;113.488;2022-11-15T02:37:59;20.55;;;7.53;;
60241;SDS011;46103;52.076;113.488;2022-11-15T02:41:55;35.33;;;12.38;;
60241;SDS011;46103;52.076;113.488;2022-11-15T02:45:33;12.10;;;4.88;;
60241;SDS011;46103;52.076;113.488;2022-11-15T02:48:59;19.08;;;6.30;;
60241;SDS011;46103;52.076;113.488;2022-11-15T02:52:21;15.05;;;4.50;;
60241;SDS011;46103;52.076;113.488;2022-11-15T02:55:47;11.30;;;4.53;;
60241;SDS011;46103;52.076;113.488;2022-11-15T03:02:57;11.43;;;4.00;;
60241;SDS011;46103;52.076;113.488;2022-11-15T03:10:05;10.43;;;3.90;;
60241;SDS011;46103;52.076;113.488;2022-11-15T03:14:18;12.57;;;3.85;;
60241;SDS011;46103;52.076;113.488;2022-11-15T03:20:44;8.43;;;3.17;;
60241;SDS011;46103;52.076;113.488;2022-11-15T03:24:08;6.75;;;3.08;;
60241;SDS011;46103;52.076;113.488;2022-11-15T03:27:33;14.75;;;3.47;;
60241;SDS011;46103;52.076;113.488;2022-11-15T03:31:00;11.95;;;3.35;;
60241;SDS011;46103;52.076;113.488;2022-11-15T03:34:47;6.75;;;2.20;;
60241;SDS011;46103;52.076;113.488;2022-11-15T03:38:15;9.20;;;3.00;;
60241;SDS011;46103;52.076;113.488;2022-11-15T03:52:04;10.73;;;4.20;;
60241;SDS011;46103;52.076;113.488;2022-11-15T03:55:27;11.45;;;3.90;;
60241;SDS011;46103;52.076;113.488;2022-11-15T03:58:49;9.07;;;3.60;;
60241;SDS011;46103;52.076;113.488;2022-11-15T04:02:11;6.40;;;2.45;;
60241;SDS011;46103;52.076;113.488;2022-11-15T04:05:34;12.20;;;3.30;;
60241;SDS011;46103;52.076;113.488;2022-11-15T04:08:56;12.85;;;4.68;;
60241;SDS011;46103;52.076;113.488;2022-11-15T04:12:18;10.80;;;4.20;;
60241;SDS011;46103;52.076;113.488;2022-11-15T04:15:53;9.55;;;3.90;;
60241;SDS011;46103;52.076;113.488;2022-11-15T04:19:21;13.00;;;3.55;;
60241;SDS011;46103;52.076;113.488;2022-11-15T04:23:03;15.55;;;5.95;;
60241;SDS011;46103;52.076;113.488;2022-11-15T04:26:46;12.38;;;4.30;;
60241;SDS011;46103;52.076;113.488;2022-11-15T04:30:08;15.82;;;7.03;;
60241;SDS011;46103;52.076;113.488;2022-11-15T04:33:30;16.15;;;6.22;;
60241;SDS011;46103;52.076;113.488;2022-11-15T04:36:53;4.18;;;1.95;;
60241;SDS011;46103;52.076;113.488;2022-11-15T04:40:33;7.47;;;2.53;;
60241;SDS011;46103;52.076;113.488;2022-11-15T04:43:59;9.48;;;4.03;;
60241;SDS011;46103;52.076;113.488;2022-11-15T04:47:22;11.00;;;4.38;;
60241;SDS011;46103;52.076;113.488;2022-11-15T04:50:49;12.23;;;4.05;;
60241;SDS011;46103;52.076;113.488;2022-11-15T04:54:11;9.10;;;3.03;;
60241;SDS011;46103;52.076;113.488;2022-11-15T04:57:34;8.57;;;3.40;;
60241;SDS011;46103;52.076;113.488;2022-11-15T05:00:56;8.38;;;3.13;;
60241;SDS011;46103;52.076;113.488;2022-11-15T05:04:19;5.07;;;1.98;;
60241;SDS011;46103;52.076;113.488;2022-11-15T05:07:42;5.45;;;2.35;;
60241;SDS011;46103;52.076;113.488;2022-11-15T05:11:04;2.97;;;1.27;;
60241;SDS011;46103;52.076;113.488;2022-11-15T05:14:26;4.28;;;1.48;;
60241;SDS011;46103;52.076;113.488;2022-11-15T05:17:49;2.05;;;1.30;;
60241;SDS011;46103;52.076;113.488;2022-11-15T05:21:13;3.80;;;1.77;;
60241;SDS011;46103;52.076;113.488;2022-11-15T05:24:36;5.88;;;2.00;;
60241;SDS011;46103;52.076;113.488;2022-11-15T05:27:58;4.18;;;2.00;;
60241;SDS011;46103;52.076;113.488;2022-11-15T05:31:21;4.85;;;1.60;;
60241;SDS011;46103;52.076;113.488;2022-11-15T05:34:43;4.35;;;1.40;;
60241;SDS011;46103;52.076;113.488;2022-11-15T05:38:07;10.80;;;1.98;;
60241;SDS011;46103;52.076;113.488;2022-11-15T05:41:32;2.85;;;1.27;;
60241;SDS011;46103;52.076;113.488;2022-11-15T05:44:55;6.18;;;1.73;;
60241;SDS011;46103;52.076;113.488;2022-11-15T05:48:19;6.88;;;1.55;;
60241;SDS011;46103;52.076;113.488;2022-11-15T05:51:42;10.27;;;2.33;;
60241;SDS011;46103;52.076;113.488;2022-11-15T05:55:06;7.32;;;1.55;;
60241;SDS011;46103;52.076;113.488;2022-11-15T05:58:33;6.68;;;2.58;;
60241;SDS011;46103;52.076;113.488;2022-11-15T06:01:54;6.03;;;1.55;;
60241;SDS011;46103;52.076;113.488;2022-11-15T06:05:17;2.67;;;1.42;;
60241;SDS011;46103;52.076;113.488;2022-11-15T06:08:39;3.35;;;1.40;;
60241;SDS011;46103;52.076;113.488;2022-11-15T06:12:03;2.60;;;1.60;;
60241;SDS011;46103;52.076;113.488;2022-11-15T06:15:25;2.88;;;1.50;;
60241;SDS011;46103;52.076;113.488;2022-11-15T06:18:49;8.35;;;2.30;;
60241;SDS011;46103;52.076;113.488;2022-11-15T06:22:12;8.73;;;2.72;;
60241;SDS011;46103;52.076;113.488;2022-11-15T06:25:35;4.20;;;1.83;;
60241;SDS011;46103;52.076;113.488;2022-11-15T06:28:57;15.75;;;4.22;;
60241;SDS011;46103;52.076;113.488;2022-11-15T06:32:19;6.45;;;2.97;;
60241;SDS011;46103;52.076;113.488;2022-11-15T06:35:42;7.15;;;3.00;;
60241;SDS011;46103;52.076;113.488;2022-11-15T06:39:05;5.50;;;2.55;;
60241;SDS011;46103;52.076;113.488;2022-11-15T06:42:28;6.95;;;2.47;;
60241;SDS011;46103;52.076;113.488;2022-11-15T06:45:51;9.27;;;3.88;;
60241;SDS011;46103;52.076;113.488;2022-11-15T06:49:13;15.18;;;4.97;;
60241;SDS011;46103;52.076;113.488;2022-11-15T06:52:36;10.77;;;4.35;;
60241;SDS011;46103;52.076;113.488;2022-11-15T06:56:02;8.70;;;3.95;;
60241;SDS011;46103;52.076;113.488;2022-11-15T06:59:26;13.10;;;5.72;;
60241;SDS011;46103;52.076;113.488;2022-11-15T07:02:49;8.13;;;2.97;;
60241;SDS011;46103;52.076;113.488;2022-11-15T07:06:12;5.57;;;2.78;;
60241;SDS011;46103;52.076;113.488;2022-11-15T07:09:36;7.53;;;3.40;;
60241;SDS011;46103;52.076;113.488;2022-11-15T07:12:59;4.75;;;2.22;;
60241;SDS011;46103;52.076;113.488;2022-11-15T07:16:23;6.22;;;3.28;;
60241;SDS011;46103;52.076;113.488;2022-11-15T07:19:45;7.63;;;3.10;;
60241;SDS011;46103;52.076;113.488;2022-11-15T07:23:08;10.90;;;3.88;;
60241;SDS011;46103;52.076;113.488;2022-11-15T07:26:31;8.82;;;3.60;;
60241;SDS011;46103;52.076;113.488;2022-11-15T07:29:54;12.45;;;4.68;;
60241;SDS011;46103;52.076;113.488;2022-11-15T07:33:17;25.05;;;8.68;;
60241;SDS011;46103;52.076;113.488;2022-11-15T07:36:41;11.02;;;3.80;;
60241;SDS011;46103;52.076;113.488;2022-11-15T07:40:05;3.95;;;2.05;;
60241;SDS011;46103;52.076;113.488;2022-11-15T07:43:28;3.97;;;1.70;;
60241;SDS011;46103;52.076;113.488;2022-11-15T07:46:57;7.50;;;2.35;;
60241;SDS011;46103;52.076;113.488;2022-11-15T07:50:19;3.97;;;2.05;;
60241;SDS011;46103;52.076;113.488;2022-11-15T07:53:41;8.18;;;2.50;;
60241;SDS011;46103;52.076;113.488;2022-11-15T07:57:04;9.00;;;2.58;;
60241;SDS011;46103;52.076;113.488;2022-11-15T08:00:29;10.02;;;2.67;;
60241;SDS011;46103;52.076;113.488;2022-11-15T08:03:51;16.70;;;4.88;;
60241;SDS011;46103;52.076;113.488;2022-11-15T08:07:14;7.97;;;2.63;;
60241;SDS011;46103;52.076;113.488;2022-11-15T08:10:37;11.15;;;3.17;;
60241;SDS011;46103;52.076;113.488;2022-11-15T08:14:01;6.47;;;2.78;;
60241;SDS011;46103;52.076;113.488;2022-11-15T08:17:25;8.82;;;3.15;;
60241;SDS011;46103;52.076;113.488;2022-11-15T08:20:47;12.80;;;4.78;;
60241;SDS011;46103;52.076;113.488;2022-11-15T08:24:10;8.63;;;3.58;;
60241;SDS011;46103;52.076;113.488;2022-11-15T08:27:32;10.45;;;3.35;;
60241;SDS011;46103;52.076;113.488;2022-11-15T08:30:54;7.88;;;3.70;;
60241;SDS011;46103;52.076;113.488;2022-11-15T08:34:18;12.90;;;3.75;;
60241;SDS011;46103;52.076;113.488;2022-11-15T08:37:40;8.93;;;3.47;;
60241;SDS011;46103;52.076;113.488;2022-11-15T08:41:04;13.07;;;4.20;;
60241;SDS011;46103;52.076;113.488;2022-11-15T08:44:27;13.55;;;4.07;;
60241;SDS011;46103;52.076;113.488;2022-11-15T08:47:50;11.13;;;3.63;;
60241;SDS011;46103;52.076;113.488;2022-11-15T08:51:14;12.80;;;4.55;;
60241;SDS011;46103;52.076;113.488;2022-11-15T08:54:37;13.20;;;4.97;;
60241;SDS011;46103;52.076;113.488;2022-11-15T08:58:00;11.15;;;4.80;;
60241;SDS011;46103;52.076;113.488;2022-11-15T09:01:24;18.83;;;6.35;;
60241;SDS011;46103;52.076;113.488;2022-11-15T09:04:45;8.52;;;3.42;;
60241;SDS011;46103;52.076;113.488;2022-11-15T09:08:08;8.27;;;3.75;;
60241;SDS011;46103;52.076;113.488;2022-11-15T09:11:50;7.97;;;4.07;;
60241;SDS011;46103;52.076;113.488;2022-11-15T09:15:20;11.07;;;5.53;;
60241;SDS011;46103;52.076;113.488;2022-11-15T09:18:43;10.40;;;4.63;;
60241;SDS011;46103;52.076;113.488;2022-11-15T09:22:06;10.98;;;4.60;;
60241;SDS011;46103;52.076;113.488;2022-11-15T09:25:30;10.70;;;4.30;;
60241;SDS011;46103;52.076;113.488;2022-11-15T09:28:54;7.15;;;4.47;;
60241;SDS011;46103;52.076;113.488;2022-11-15T09:32:18;10.82;;;4.70;;
60241;SDS011;46103;52.076;113.488;2022-11-15T09:35:40;10.18;;;4.50;;
60241;SDS011;46103;52.076;113.488;2022-11-15T09:39:05;13.13;;;5.32;;
60241;SDS011;46103;52.076;113.488;2022-11-15T09:46:24;15.85;;;5.50;;
60241;SDS011;46103;52.076;113.488;2022-11-15T09:50:39;13.05;;;4.68;;
60241;SDS011;46103;52.076;113.488;2022-11-15T09:53:57;11.40;;;3.95;;
60241;SDS011;46103;52.076;113.488;2022-11-15T10:00:41;10.60;;;4.28;;
60241;SDS011;46103;52.076;113.488;2022-11-15T10:03:52;11.80;;;4.75;;
60241;SDS011;46103;52.076;113.488;2022-11-15T10:07:13;7.45;;;4.00;;
60241;SDS011;46103;52.076;113.488;2022-11-15T10:10:55;9.25;;;4.80;;
60241;SDS011;46103;52.076;113.488;2022-11-15T10:14:20;11.03;;;4.30;;
60241;SDS011;46103;52.076;113.488;2022-11-15T10:17:42;10.77;;;3.90;;
60241;SDS011;46103;52.076;113.488;2022-11-15T10:21:17;11.60;;;5.25;;
60241;SDS011;46103;52.076;113.488;2022-11-15T10:24:31;7.65;;;3.75;;
60241;SDS011;46103;52.076;113.488;2022-11-15T10:27:41;10.25;;;4.82;;
60241;SDS011;46103;52.076;113.488;2022-11-15T10:30:51;10.43;;;3.95;;
60241;SDS011;46103;52.076;113.488;2022-11-15T10:34:16;13.32;;;4.78;;
60241;SDS011;46103;52.076;113.488;2022-11-15T10:37:33;12.52;;;5.35;;
60241;SDS011;46103;52.076;113.488;2022-11-15T10:40:41;22.48;;;9.13;;
60241;SDS011;46103;52.076;113.488;2022-11-15T10:47:27;25.77;;;9.75;;
60241;SDS011;46103;52.076;113.488;2022-11-15T10:50:43;23.42;;;9.05;;
60241;SDS011;46103;52.076;113.488;2022-11-15T10:53:54;20.25;;;9.73;;
60241;SDS011;46103;52.076;113.488;2022-11-15T10:57:16;23.67;;;11.45;;
60241;SDS011;46103;52.076;113.488;2022-11-15T11:00:30;34.20;;;14.52;;
60241;SDS011;46103;52.076;113.488;2022-11-15T11:03:44;26.65;;;12.30;;
60241;SDS011;46103;52.076;113.488;2022-11-15T11:07:00;21.45;;;9.23;;
60241;SDS011;46103;52.076;113.488;2022-11-15T11:13:38;16.85;;;7.32;;
60241;SDS011;46103;52.076;113.488;2022-11-15T11:16:47;24.35;;;8.93;;
60241;SDS011;46103;52.076;113.488;2022-11-15T11:20:18;11.35;;;5.85;;
60241;SDS011;46103;52.076;113.488;2022-11-15T11:34:15;13.15;;;5.35;;
60241;SDS011;46103;52.076;113.488;2022-11-15T11:37:26;21.77;;;7.53;;
60241;SDS011;46103;52.076;113.488;2022-11-15T11:41:00;20.88;;;8.00;;
60241;SDS011;46103;52.076;113.488;2022-11-15T11:47:31;24.98;;;10.10;;
60241;SDS011;46103;52.076;113.488;2022-11-15T11:50:41;32.58;;;13.75;;
60241;SDS011;46103;52.076;113.488;2022-11-15T11:53:50;22.80;;;9.95;;
60241;SDS011;46103;52.076;113.488;2022-11-15T11:57:11;33.97;;;14.40;;
60241;SDS011;46103;52.076;113.488;2022-11-15T12:00:26;34.65;;;15.80;;
60241;SDS011;46103;52.076;113.488;2022-11-15T12:03:38;25.70;;;9.77;;
60241;SDS011;46103;52.076;113.488;2022-11-15T12:13:19;13.93;;;6.47;;
60241;SDS011;46103;52.076;113.488;2022-11-15T12:16:29;15.45;;;5.13;;
60241;SDS011;46103;52.076;113.488;2022-11-15T12:19:35;13.18;;;5.45;;
60241;SDS011;46103;52.076;113.488;2022-11-15T12:22:44;13.68;;;5.93;;
60241;SDS011;46103;52.076;113.488;2022-11-15T12:25:57;18.20;;;7.60;;
60241;SDS011;46103;52.076;113.488;2022-11-15T12:29:13;9.93;;;5.07;;
60241;SDS011;46103;52.076;113.488;2022-11-15T12:32:33;17.38;;;7.15;;
60241;SDS011;46103;52.076;113.488;2022-11-15T12:35:41;22.08;;;8.18;;
60241;SDS011;46103;52.076;113.488;2022-11-15T12:45:22;22.50;;;10.30;;
60241;SDS011;46103;52.076;113.488;2022-11-15T12:54:53;15.88;;;6.40;;
60241;SDS011;46103;52.076;113.488;2022-11-15T13:01:57;28.13;;;11.52;;
60241;SDS011;46103;52.076;113.488;2022-11-15T13:11:59;16.25;;;7.30;;
60241;SDS011;46103;52.076;113.488;2022-11-15T13:18:52;23.63;;;10.05;;
60241;SDS011;46103;52.076;113.488;2022-11-15T13:22:11;18.40;;;8.05;;
60241;SDS011;46103;52.076;113.488;2022-11-15T13:29:21;24.85;;;9.10;;
60241;SDS011;46103;52.076;113.488;2022-11-15T13:32:26;17.13;;;8.18;;
60241;SDS011;46103;52.076;113.488;2022-11-15T13:35:36;19.50;;;8.30;;
60241;SDS011;46103;52.076;113.488;2022-11-15T13:38:53;17.67;;;7.97;;
60241;SDS011;46103;52.076;113.488;2022-11-15T13:42:18;22.58;;;8.20;;
60241;SDS011;46103;52.076;113.488;2022-11-15T13:45:24;16.15;;;7.47;;
60241;SDS011;46103;52.076;113.488;2022-11-15T13:48:31;17.70;;;8.60;;
60241;SDS011;46103;52.076;113.488;2022-11-15T13:51:47;18.55;;;8.40;;
60241;SDS011;46103;52.076;113.488;2022-11-15T13:54:56;24.83;;;8.77;;
60241;SDS011;46103;52.076;113.488;2022-11-15T13:58:03;17.27;;;7.28;;
60241;SDS011;46103;52.076;113.488;2022-11-15T14:01:18;17.80;;;7.70;;
60241;SDS011;46103;52.076;113.488;2022-11-15T14:04:26;17.52;;;7.78;;
60241;SDS011;46103;52.076;113.488;2022-11-15T14:07:55;17.23;;;7.25;;
60241;SDS011;46103;52.076;113.488;2022-11-15T14:11:20;15.93;;;7.30;;
60241;SDS011;46103;52.076;113.488;2022-11-15T14:14:36;14.18;;;7.10;;
60241;SDS011;46103;52.076;113.488;2022-11-15T14:17:52;15.45;;;7.45;;
60241;SDS011;46103;52.076;113.488;2022-11-15T14:21:05;14.95;;;7.20;;
60241;SDS011;46103;52.076;113.488;2022-11-15T14:24:16;16.40;;;7.45;;
60241;SDS011;46103;52.076;113.488;2022-11-15T14:27:32;16.33;;;7.57;;
60241;SDS011;46103;52.076;113.488;2022-11-15T14:30:38;17.13;;;7.55;;
60241;SDS011;46103;52.076;113.488;2022-11-15T14:33:45;17.60;;;8.90;;
60241;SDS011;46103;52.076;113.488;2022-11-15T14:36:52;18.95;;;8.68;;
60241;SDS011;46103;52.076;113.488;2022-11-15T14:39:57;19.58;;;10.13;;
60241;SDS011;46103;52.076;113.488;2022-11-15T14:43:03;26.67;;;9.93;;
60241;SDS011;46103;52.076;113.488;2022-11-15T14:46:10;26.65;;;11.38;;
60241;SDS011;46103;52.076;113.488;2022-11-15T14:49:14;19.90;;;7.60;;
60241;SDS011;46103;52.076;113.488;2022-11-15T14:52:24;17.25;;;8.52;;
60241;SDS011;46103;52.076;113.488;2022-11-15T14:55:37;15.43;;;7.63;;
60241;SDS011;46103;52.076;113.488;2022-11-15T14:58:46;18.38;;;7.32;;
60241;SDS011;46103;52.076;113.488;2022-11-15T15:01:50;24.77;;;9.00;;
60241;SDS011;46103;52.076;113.488;2022-11-15T15:04:58;16.48;;;8.13;;
60241;SDS011;46103;52.076;113.488;2022-11-15T15:08:05;18.58;;;8.98;;
60241;SDS011;46103;52.076;113.488;2022-11-15T15:11:13;23.23;;;10.40;;
60241;SDS011;46103;52.076;113.488;2022-11-15T15:14:19;24.48;;;9.85;;
60241;SDS011;46103;52.076;113.488;2022-11-15T15:17:23;23.25;;;10.23;;
60241;SDS011;46103;52.076;113.488;2022-11-15T15:20:26;33.67;;;9.57;;
60241;SDS011;46103;52.076;113.488;2022-11-15T15:23:33;24.75;;;9.77;;
60241;SDS011;46103;52.076;113.488;2022-11-15T15:26:40;23.27;;;10.15;;
60241;SDS011;46103;52.076;113.488;2022-11-15T15:29:44;26.80;;;9.73;;
60241;SDS011;46103;52.076;113.488;2022-11-15T15:32:47;22.55;;;9.40;;
60241;SDS011;46103;52.076;113.488;2022-11-15T15:35:52;21.90;;;9.10;;
60241;SDS011;46103;52.076;113.488;2022-11-15T15:38:58;22.17;;;9.82;;
60241;SDS011;46103;52.076;113.488;2022-11-15T15:42:05;18.38;;;8.15;;
60241;SDS011;46103;52.076;113.488;2022-11-15T15:45:11;18.98;;;8.20;;
60241;SDS011;46103;52.076;113.488;2022-11-15T15:48:19;19.73;;;7.80;;
60241;SDS011;46103;52.076;113.488;2022-11-15T15:52:02;13.30;;;6.82;;
60241;SDS011;46103;52.076;113.488;2022-11-15T15:55:08;19.35;;;7.45;;
60241;SDS011;46103;52.076;113.488;2022-11-15T15:58:16;14.98;;;6.47;;
60241;SDS011;46103;52.076;113.488;2022-11-15T16:01:25;23.52;;;7.78;;
60241;SDS011;46103;52.076;113.488;2022-11-15T16:04:44;21.33;;;8.55;;
60241;SDS011;46103;52.076;113.488;2022-11-15T16:07:50;19.70;;;8.00;;
60241;SDS011;46103;52.076;113.488;2022-11-15T16:10:59;14.93;;;7.85;;
60241;SDS011;46103;52.076;113.488;2022-11-15T16:14:09;21.45;;;9.00;;
60241;SDS011;46103;52.076;113.488;2022-11-15T16:17:25;25.30;;;9.45;;
60241;SDS011;46103;52.076;113.488;2022-11-15T16:20:37;22.75;;;9.77;;
60241;SDS011;46103;52.076;113.488;2022-11-15T16:24:02;26.25;;;10.25;;
60241;SDS011;46103;52.076;113.488;2022-11-15T16:27:15;25.55;;;10.82;;
60241;SDS011;46103;52.076;113.488;2022-11-15T16:30:24;25.77;;;8.90;;
60241;SDS011;46103;52.076;113.488;2022-11-15T16:33:36;26.63;;;9.48;;
60241;SDS011;46103;52.076;113.488;2022-11-15T16:36:45;20.50;;;10.02;;
60241;SDS011;46103;52.076;113.488;2022-11-15T16:39:56;22.27;;;9.63;;
60241;SDS011;46103;52.076;113.488;2022-11-15T16:43:08;24.23;;;9.65;;
60241;SDS011;46103;52.076;113.488;2022-11-15T16:46:24;18.73;;;9.38;;
60241;SDS011;46103;52.076;113.488;2022-11-15T16:49:36;21.27;;;9.50;;
60241;SDS011;46103;52.076;113.488;2022-11-15T16:52:44;24.23;;;9.25;;
60241;SDS011;46103;52.076;113.488;2022-11-15T16:55:53;22.45;;;8.40;;
60241;SDS011;46103;52.076;113.488;2022-11-15T16:59:02;17.58;;;7.00;;
60241;SDS011;46103;52.076;113.488;2022-11-15T17:02:13;19.95;;;6.88;;
60241;SDS011;46103;52.076;113.488;2022-11-15T17:05:21;25.55;;;9.93;;
60241;SDS011;46103;52.076;113.488;2022-11-15T17:08:31;26.35;;;11.25;;
60241;SDS011;46103;52.076;113.488;2022-11-15T17:11:40;35.30;;;12.77;;
60241;SDS011;46103;52.076;113.488;2022-11-15T17:14:50;30.70;;;13.25;;
60241;SDS011;46103;52.076;113.488;2022-11-15T17:18:00;35.80;;;12.73;;
60241;SDS011;46103;52.076;113.488;2022-11-15T17:21:12;21.20;;;11.15;;
60241;SDS011;46103;52.076;113.488;2022-11-15T17:24:23;33.97;;;12.48;;
60241;SDS011;46103;52.076;113.488;2022-11-15T17:27:32;29.05;;;11.52;;
60241;SDS011;46103;52.076;113.488;2022-11-15T17:30:42;30.73;;;13.13;;
60241;SDS011;46103;52.076;113.488;2022-11-15T17:33:51;25.13;;;11.98;;
60241;SDS011;46103;52.076;113.488;2022-11-15T17:37:01;28.58;;;12.57;;
60241;SDS011;46103;52.076;113.488;2022-11-15T17:40:13;27.77;;;12.73;;
60241;SDS011;46103;52.076;113.488;2022-11-15T17:43:23;33.70;;;13.57;;
60241;SDS011;46103;52.076;113.488;2022-11-15T17:46:33;22.90;;;10.32;;
60241;SDS011;46103;52.076;113.488;2022-11-15T17:49:43;26.50;;;12.57;;
60241;SDS011;46103;52.076;113.488;2022-11-15T17:52:50;24.75;;;10.77;;
60241;SDS011;46103;52.076;113.488;2022-11-15T17:56:33;20.50;;;9.38;;
60241;SDS011;46103;52.076;113.488;2022-11-15T17:59:35;25.10;;;9.32;;
60241;SDS011;46103;52.076;113.488;2022-11-15T18:02:43;20.92;;;9.50;;
60241;SDS011;46103;52.076;113.488;2022-11-15T18:05:53;24.70;;;9.07;;
60241;SDS011;46103;52.076;113.488;2022-11-15T18:09:03;15.43;;;7.90;;
60241;SDS011;46103;52.076;113.488;2022-11-15T18:12:12;23.25;;;8.43;;
60241;SDS011;46103;52.076;113.488;2022-11-15T18:15:23;25.13;;;10.48;;
60241;SDS011;46103;52.076;113.488;2022-11-15T18:18:32;27.67;;;10.93;;
60241;SDS011;46103;52.076;113.488;2022-11-15T18:21:43;31.33;;;12.38;;
60241;SDS011;46103;52.076;113.488;2022-11-15T18:25:02;24.35;;;10.73;;
60241;SDS011;46103;52.076;113.488;2022-11-15T18:28:12;23.85;;;10.52;;
60241;SDS011;46103;52.076;113.488;2022-11-15T18:31:24;26.45;;;11.88;;
60241;SDS011;46103;52.076;113.488;2022-11-15T18:34:33;25.38;;;11.82;;
60241;SDS011;46103;52.076;113.488;2022-11-15T18:37:43;24.92;;;11.35;;
60241;SDS011;46103;52.076;113.488;2022-11-15T18:40:53;25.52;;;10.35;;
60241;SDS011;46103;52.076;113.488;2022-11-15T18:44:02;28.60;;;11.05;;
60241;SDS011;46103;52.076;113.488;2022-11-15T18:47:13;28.20;;;10.85;;
60241;SDS011;46103;52.076;113.488;2022-11-15T18:50:23;30.65;;;13.00;;
60241;SDS011;46103;52.076;113.488;2022-11-15T18:53:33;45.17;;;17.60;;
60241;SDS011;46103;52.076;113.488;2022-11-15T18:56:42;42.08;;;15.98;;
60241;SDS011;46103;52.076;113.488;2022-11-15T18:59:52;120.10;;;40.38;;
60241;SDS011;46103;52.076;113.488;2022-11-15T19:03:01;103.28;;;32.38;;
60241;SDS011;46103;52.076;113.488;2022-11-15T19:06:16;78.53;;;27.90;;
60241;SDS011;46103;52.076;113.488;2022-11-15T19:09:28;82.25;;;28.23;;
60241;SDS011;46103;52.076;113.488;2022-11-15T19:12:41;111.38;;;35.67;;
60241;SDS011;46103;52.076;113.488;2022-11-15T19:15:55;173.07;;;49.83;;
60241;SDS011;46103;52.076;113.488;2022-11-15T19:19:05;205.88;;;61.17;;
60241;SDS011;46103;52.076;113.488;2022-11-15T19:22:11;210.50;;;70.68;;
60241;SDS011;46103;52.076;113.488;2022-11-15T19:25:17;139.13;;;44.85;;
60241;SDS011;46103;52.076;113.488;2022-11-15T19:28:22;132.13;;;43.67;;
60241;SDS011;46103;52.076;113.488;2022-11-15T19:31:30;125.75;;;39.13;;
60241;SDS011;46103;52.076;113.488;2022-11-15T19:34:35;122.35;;;41.38;;
60241;SDS011;46103;52.076;113.488;2022-11-15T19:37:45;136.68;;;41.85;;
60241;SDS011;46103;52.076;113.488;2022-11-15T19:40:55;165.55;;;53.03;;
60241;SDS011;46103;52.076;113.488;2022-11-15T19:44:03;139.85;;;42.97;;
60241;SDS011;46103;52.076;113.488;2022-11-15T19:47:09;129.27;;;42.53;;
60241;SDS011;46103;52.076;113.488;2022-11-15T19:50:15;145.88;;;48.10;;
60241;SDS011;46103;52.076;113.488;2022-11-15T19:53:22;150.05;;;48.47;;
60241;SDS011;46103;52.076;113.488;2022-11-15T19:56:34;146.43;;;48.67;;
60241;SDS011;46103;52.076;113.488;2022-11-15T19:59:39;162.38;;;52.85;;
60241;SDS011;46103;52.076;113.488;2022-11-15T20:02:44;138.23;;;47.75;;
60241;SDS011;46103;52.076;113.488;2022-11-15T20:05:50;137.10;;;44.10;;
60241;SDS011;46103;52.076;113.488;2022-11-15T20:08:57;145.57;;;46.42;;
60241;SDS011;46103;52.076;113.488;2022-11-15T20:12:03;145.85;;;45.10;;
60241;SDS011;46103;52.076;113.488;2022-11-15T20:15:08;106.78;;;38.88;;
60241;SDS011;46103;52.076;113.488;2022-11-15T20:18:13;90.40;;;34.40;;
60241;SDS011;46103;52.076;113.488;2022-11-15T20:21:20;123.28;;;35.65;;
60241;SDS011;46103;52.076;113.488;2022-11-15T20:24:26;110.90;;;39.70;;
60241;SDS011;46103;52.076;113.488;2022-11-15T20:27:32;115.72;;;37.53;;
60241;SDS011;46103;52.076;113.488;2022-11-15T20:30:37;117.78;;;36.65;;
60241;SDS011;46103;52.076;113.488;2022-11-15T20:33:43;105.75;;;36.25;;
60241;SDS011;46103;52.076;113.488;2022-11-15T20:36:49;62.42;;;20.60;;
60241;SDS011;46103;52.076;113.488;2022-11-15T20:39:55;88.53;;;26.20;;